Time;durP1;ratioP1;P1;durP2;ratioP2;P2;SDS_P1;SDS_P2;PMS_P1;PMS_P2;Temp;Humidity;BMP_temperature;BMP_pressure;BME280_temperature;BME280_humidity;BME280_pressure;Samples;Min_cycle;Max_cycle;Signal;HPM_P1;HPM_P2
2023/09/11 04:03:20;;;;;;;;;;;;;;;14.56;69.79;99182.44;105955;1265;106380;-91
2023/09/11 04:05:54;;;;;;;;;;;;;;;14.54;69.88;99181.00;105812;1269;96698;-89
2023/09/11 04:08:23;;;;;;;;;;;;;;;14.52;69.81;99179.38;105918;1270;97572;-90
2023/09/11 04:10:51;;;;;;;;;;;;;;;14.48;69.89;99180.23;105771;1267;109992;-90
2023/09/11 04:13:20;;;;;;;;;;;;;;;14.46;69.88;99179.16;105750;1266;97865;-91
2023/09/11 04:15:50;;;;;;;;;;;;;;;14.45;69.85;99172.88;105596;1271;106194;-89
2023/09/11 04:18:23;;;;;;;;;;;;;;;14.43;69.87;99168.33;105842;1269;96705;-90
2023/09/11 04:20:59;;;;;;;;;;;;;;;14.43;69.84;99168.19;105487;1270;96646;-90
2023/09/11 04:23:32;;;;;;;;;;;;;;;14.42;69.86;99167.70;105631;1270;110076;-90
2023/09/11 04:26:03;;;;;;;;;;;;;;;14.41;69.94;99166.91;105726;1270;96708;-91
2023/09/11 04:28:36;;;;;;;;;;;;;;;14.40;70.02;99168.11;105618;1270;107956;-90
2023/09/11 04:31:10;;;;;;;;;;;;;;;14.40;70.17;99166.45;105529;1267;96566;-91
2023/09/11 04:33:39;;;;;;;;;;;;;;;14.42;70.00;99170.02;105517;1265;96610;-91
2023/09/11 04:36:07;;;;;;;;;;;;;;;14.42;70.01;99163.98;105716;1270;108605;-93
2023/09/11 04:38:41;;;;;;;;;;;;;;;14.42;70.11;99164.86;105626;1270;96628;-92
2023/09/11 04:41:16;;;;;;;;;;;;;;;14.44;69.96;99164.54;106018;1265;107707;-91
2023/09/11 04:43:55;;;;;;;;;;;;;;;14.44;70.07;99165.24;106375;1270;96615;-92
2023/09/11 04:46:27;;;;;;;;;;;;;;;14.45;70.12;99164.98;105665;1267;96642;-91
2023/09/11 04:49:00;;;;;;;;;;;;;;;14.48;70.11;99165.05;105666;1267;109885;-92
2023/09/11 04:51:35;;;;;;;;;;;;;;;14.51;70.15;99165.67;105767;1265;96644;-93
2023/09/11 04:57:40;;;;;;;;;;;;;;;14.57;70.18;99158.02;105841;1269;96632;-90
2023/09/11 05:00:13;;;;;;;;;;;;;;;14.61;70.26;99159.50;105761;1270;96537;-89
2023/09/11 05:02:46;;;;;;;;;;;;;;;14.65;70.31;99158.61;105794;1270;110374;-89
2023/09/11 05:05:14;;;;;;;;;;;;;;;14.68;70.44;99156.71;105587;1270;96534;-88
2023/09/11 05:07:48;;;;;;;;;;;;;;;14.71;70.43;99158.81;105921;1264;107350;-91
2023/09/11 05:10:16;;;;;;;;;;;;;;;14.74;70.45;99160.18;105796;1268;96741;-91
2023/09/11 05:12:49;;;;;;;;;;;;;;;14.78;70.49;99158.02;105879;1264;96628;-91
2023/09/11 05:15:17;;;;;;;;;;;;;;;14.80;70.45;99156.60;106076;1264;109436;-92
2023/09/11 05:17:48;;;;;;;;;;;;;;;14.81;70.51;99157.41;106246;1270;96704;-91
2023/09/11 05:20:57;;;;;;;;;;;;;;;;;;;;;
2023/09/11 05:23:57;;;;;;;;;;;;;;;14.89;70.60;99157.23;106324;1263;96694;-91
2023/09/11 05:27:28;;;;;;;;;;;;;;;14.97;70.80;99154.58;106382;1264;96626;-91
2023/09/11 05:30:18;;;;;;;;;;;;;;;15.04;70.80;99153.78;105998;1269;110055;-90
2023/09/11 05:33:32;;;;;;;;;;;;;;;15.12;70.92;99152.35;106055;1269;96585;-90
2023/09/11 05:36:03;;;;;;;;;;;;;;;15.19;70.89;99150.64;106826;1263;106048;-91
2023/09/11 05:38:34;;;;;;;;;;;;;;;15.25;71.00;99151.87;107278;1264;94385;-90
2023/09/11 05:41:05;;;;;;;;;;;;;;;15.32;71.02;99147.63;106719;1270;96698;-90
2023/09/11 05:43:33;;;;;;;;;;;;;;;15.40;71.09;99153.92;106331;1267;109859;-88
2023/09/11 05:46:03;;;;;;;;;;;;;;;15.47;71.20;99154.33;106141;1264;96413;-91
2023/09/11 05:48:32;;;;;;;;;;;;;;;15.56;71.35;99154.45;106240;1267;106867;-89
2023/09/11 05:51:04;;;;;;;;;;;;;;;15.65;71.29;99155.80;105922;1264;96588;-90
2023/09/11 05:53:36;;;;;;;;;;;;;;;15.73;71.42;99153.23;105756;1264;96710;-89
2023/09/11 05:56:04;;;;;;;;;;;;;;;15.82;71.55;99151.67;106035;1263;109164;-88
2023/09/11 05:58:35;;;;;;;;;;;;;;;15.91;71.64;99155.70;105950;1264;97872;-92
2023/09/11 06:01:13;;;;;;;;;;;;;;;15.99;71.68;99150.29;105932;1263;107725;-90
2023/09/11 06:04:31;;;;;;;;;;;;;;;16.11;71.72;99149.59;105855;1263;96694;-91
2023/09/11 06:07:00;;;;;;;;;;;;;;;16.21;71.96;99151.45;106122;1264;96751;-88
2023/09/11 06:09:32;;;;;;;;;;;;;;;16.32;72.11;99145.05;106464;1263;110083;-90
2023/09/11 06:12:00;;;;;;;;;;;;;;;16.42;72.09;99145.08;106145;1264;97140;-89
2023/09/11 06:14:28;;;;;;;;;;;;;;;16.50;72.09;99147.67;105927;1264;107686;-89
2023/09/11 06:17:03;;;;;;;;;;;;;;;16.59;72.16;99147.13;105849;1269;96583;-90
2023/09/11 06:19:37;;;;;;;;;;;;;;;16.69;72.07;99148.17;105857;1264;96624;-89
2023/09/11 06:23:06;;;;;;;;;;;;;;;;;;;;;
2023/09/11 06:29:19;;;;;;;;;;;;;;;17.07;72.42;99146.65;106032;1264;107746;-92
2023/09/11 06:31:48;;;;;;;;;;;;;;;17.17;72.58;99146.58;106227;1263;96686;-91
2023/09/11 06:34:38;;;;;;;;;;;;;;;17.28;72.41;99144.44;105446;1264;96731;-91
2023/09/11 06:37:09;;;;;;;;;;;;;;;17.37;72.42;99144.28;106031;1264;109404;-90
2023/09/11 06:39:38;;;;;;;;;;;;;;;17.47;72.70;99146.46;106097;1267;96525;-90
2023/09/11 06:43:20;;;;;;;;;;;;;;;17.61;72.60;99146.52;106170;1263;106314;-91
2023/09/11 06:45:52;;;;;;;;;;;;;;;17.69;72.48;99148.78;106199;1269;96803;-91
2023/09/11 06:48:26;;;;;;;;;;;;;;;17.77;72.56;99146.50;106251;1263;96589;-91
2023/09/11 06:54:54;;;;;;;;;;;;;;;17.99;72.49;99148.97;106259;1264;96606;-91
2023/09/11 06:57:25;;;;;;;;;;;;;;;18.07;72.67;99148.91;105970;1269;108028;-91
2023/09/11 06:59:54;;;;;;;;;;;;;;;18.17;72.65;99152.97;105824;1264;96719;-90
2023/09/11 07:02:22;;;;;;;;;;;;;;;18.24;72.54;99152.02;105898;1263;96720;-90
2023/09/11 07:04:57;;;;;;;;;;;;;;;18.32;72.61;99150.64;105995;1272;109968;-91
2023/09/11 07:08:09;;;;;;;;;;;;;;;18.41;72.66;99153.64;105918;1266;96529;-91
2023/09/11 07:10:40;;;;;;;;;;;;;;;18.50;72.53;99153.42;105926;1264;108029;-90
2023/09/11 07:13:10;;;;;;;;;;;;;;;18.58;72.68;99152.46;106052;1270;96555;-89
2023/09/11 07:15:40;;;;;;;;;;;;;;;18.66;72.75;99150.59;106210;1268;96584;-89
2023/09/11 07:18:11;;;;;;;;;;;;;;;18.72;72.72;99156.02;106143;1267;109909;-89
2023/09/11 07:20:47;;;;;;;;;;;;;;;18.79;72.77;99156.02;106180;1263;96509;-89
2023/09/11 07:23:16;;;;;;;;;;;;;;;18.85;72.66;99154.27;106099;1267;106414;-91
2023/09/11 07:25:47;;;;;;;;;;;;;;;18.92;72.72;99156.31;106259;1264;96506;-90
2023/09/11 07:28:46;;;;;;;;;;;;;;;18.98;72.70;99157.39;106303;1264;96393;-90
2023/09/11 07:31:15;;;;;;;;;;;;;;;19.10;72.67;99154.41;106358;1264;109956;-91
2023/09/11 07:33:45;;;;;;;;;;;;;;;19.15;72.55;99152.39;106271;1267;96602;-89
2023/09/11 07:42:52;;;;;;;;;;;;;;;19.36;72.57;99157.76;106238;1263;96603;-90
2023/09/11 07:45:47;;;;;;;;;;;;;;;19.41;72.56;99156.27;106664;1263;110424;-91
2023/09/11 07:48:18;;;;;;;;;;;;;;;19.47;72.63;99154.94;106968;1264;96495;-91
2023/09/11 07:50:46;;;;;;;;;;;;;;;19.56;72.75;99149.48;106690;1266;107239;-91
2023/09/11 07:53:16;;;;;;;;;;;;;;;19.62;72.70;99148.57;106001;1264;96698;-90
2023/09/11 07:56:33;;;;;;;;;;;;;;;19.70;72.59;99147.06;106193;1262;96577;-91
2023/09/11 08:02:55;;;;;;;;;;;;;;;19.84;72.43;99147.55;106115;1266;96417;-90
2023/09/11 08:05:24;;;;;;;;;;;;;;;19.85;72.35;99144.77;105979;1268;107593;-91
2023/09/11 08:07:53;;;;;;;;;;;;;;;19.88;72.45;99143.11;106214;1267;96690;-90
2023/09/11 08:10:25;;;;;;;;;;;;;;;19.94;72.56;99140.80;106136;1263;96484;-90
2023/09/11 08:13:15;;;;;;;;;;;;;;;20.07;72.70;99140.00;105987;1268;109955;-91
2023/09/11 08:15:44;;;;;;;;;;;;;;;20.15;72.51;99135.66;106176;1268;98041;-91
2023/09/11 08:18:12;;;;;;;;;;;;;;;20.20;72.45;99134.12;106809;1269;107596;-91
2023/09/11 08:20:44;;;;;;;;;;;;;;;20.27;72.42;99134.88;106654;1264;96589;-92
2023/09/11 08:23:12;;;;;;;;;;;;;;;20.31;72.36;99128.30;106228;1263;97954;-91
2023/09/11 08:26:33;;;;;;;;;;;;;;;20.41;72.39;99128.86;106133;1264;110106;-90
2023/09/11 08:29:03;;;;;;;;;;;;;;;20.45;72.45;99126.20;106044;1265;96720;-89
2023/09/11 08:31:33;;;;;;;;;;;;;;;20.51;72.26;99127.09;105945;1267;107766;-90
2023/09/11 08:34:01;;;;;;;;;;;;;;;20.58;72.11;99126.55;106115;1267;97833;-90
2023/09/11 08:36:31;;;;;;;;;;;;;;;20.60;72.26;99125.70;105808;1268;97959;-90
2023/09/11 08:38:59;;;;;;;;;;;;;;;20.65;72.16;99124.42;106120;1267;110377;-90
2023/09/11 08:41:34;;;;;;;;;;;;;;;20.69;72.13;99124.78;105997;1264;96413;-89
2023/09/11 08:44:03;;;;;;;;;;;;;;;20.71;71.98;99121.85;105968;1267;107711;-90
2023/09/11 08:46:36;;;;;;;;;;;;;;;20.77;72.06;99117.77;105987;1271;96684;-90
2023/09/11 08:52:16;;;;;;;;;;;;;;;20.85;71.80;99113.00;106731;1268;109577;-92
2023/09/11 08:54:56;;;;;;;;;;;;;;;20.90;72.07;99113.55;106796;1267;95345;-92
2023/09/11 09:00:40;;;;;;;;;;;;;;;21.11;72.22;99109.54;106282;1265;96618;-91
2023/09/11 09:03:11;;;;;;;;;;;;;;;21.20;72.03;99110.77;106407;1265;96522;-93
2023/09/11 09:05:44;;;;;;;;;;;;;;;21.24;71.98;99111.36;106198;1267;108539;-91
2023/09/11 09:08:15;;;;;;;;;;;;;;;21.30;71.87;99106.05;105978;1264;96624;-91
2023/09/11 09:10:47;;;;;;;;;;;;;;;21.34;71.85;99103.20;105986;1268;107834;-91
2023/09/11 09:13:16;;;;;;;;;;;;;;;21.40;71.96;99100.55;106003;1264;96777;-92
2023/09/11 09:15:45;;;;;;;;;;;;;;;21.47;71.88;99102.77;106158;1264;96577;-92
2023/09/11 09:18:13;;;;;;;;;;;;;;;21.51;71.80;99101.08;106324;1269;111244;-92
2023/09/11 09:20:42;;;;;;;;;;;;;;;21.54;71.82;99102.56;105913;1264;96624;-91
2023/09/11 09:23:12;;;;;;;;;;;;;;;21.60;71.72;99103.00;106091;1264;107089;-92
2023/09/11 09:25:41;;;;;;;;;;;;;;;21.63;71.66;99101.89;106076;1264;97951;-91
2023/09/11 09:28:38;;;;;;;;;;;;;;;21.64;71.48;99097.42;106066;1269;98068;-92
2023/09/11 09:31:08;;;;;;;;;;;;;;;21.67;71.65;99094.66;105904;1267;110315;-92
2023/09/11 09:33:44;;;;;;;;;;;;;;;21.74;71.92;99092.27;105930;1270;96674;-91
2023/09/11 09:36:16;;;;;;;;;;;;;;;21.82;71.46;99090.55;105817;1265;107515;-91
2023/09/11 09:38:44;;;;;;;;;;;;;;;21.88;71.58;99090.64;105858;1271;96549;-91
2023/09/11 09:41:13;;;;;;;;;;;;;;;21.94;71.61;99089.20;105873;1267;96583;-90
2023/09/11 09:47:21;;;;;;;;;;;;;;;22.05;71.45;99090.42;105967;1264;96563;-91
2023/09/11 09:53:46;;;;;;;;;;;;;;;22.29;71.33;99080.03;105769;1267;96621;-90
2023/09/11 09:57:21;;;;;;;;;;;;;;;22.31;71.35;99076.60;106382;1265;96721;-91
2023/09/11 10:00:22;;;;;;;;;;;;;;;22.34;71.28;99076.80;106585;1267;109496;-90
2023/09/11 10:02:54;;;;;;;;;;;;;;;22.40;71.32;99076.45;106272;1267;96677;-91
2023/09/11 10:05:23;;;;;;;;;;;;;;;22.45;71.01;99073.49;106010;1265;107771;-90
2023/09/11 10:08:15;;;;;;;;;;;;;;;22.50;70.78;99070.66;105938;1265;96639;-90
2023/09/11 10:10:44;;;;;;;;;;;;;;;22.54;70.77;99065.66;106004;1264;96684;-90
2023/09/11 10:13:15;;;;;;;;;;;;;;;22.58;70.97;99061.46;105826;1264;110808;-90
2023/09/11 10:15:45;;;;;;;;;;;;;;;22.67;71.05;99061.80;105861;1264;96695;-89
2023/09/11 10:18:13;;;;;;;;;;;;;;;22.73;70.91;99064.42;105689;1270;108172;-90
2023/09/11 10:20:42;;;;;;;;;;;;;;;22.76;70.62;99061.34;105778;1265;96551;-89
2023/09/11 10:23:12;;;;;;;;;;;;;;;22.77;70.66;99059.67;105987;1267;96522;-91
2023/09/11 10:25:50;;;;;;;;;;;;;;;22.77;70.85;99055.47;106008;1266;109955;-90
2023/09/11 10:28:47;;;;;;;;;;;;;;;22.81;70.60;99051.25;106606;1265;96493;-91
2023/09/11 10:31:31;;;;;;;;;;;;;;;22.84;70.71;99048.98;106226;1265;107348;-90
2023/09/11 10:34:01;;;;;;;;;;;;;;;22.91;70.58;99051.19;106156;1265;96618;-90
2023/09/11 10:36:35;;;;;;;;;;;;;;;22.95;70.71;99047.27;106158;1265;96737;-90
2023/09/11 10:39:07;;;;;;;;;;;;;;;23.06;70.54;99045.95;106054;1267;111115;-90
2023/09/11 10:41:41;;;;;;;;;;;;;;;23.13;70.52;99045.19;105966;1265;96599;-90
2023/09/11 10:44:10;;;;;;;;;;;;;;;23.18;70.20;99040.64;106011;1270;106147;-91
2023/09/11 10:46:39;;;;;;;;;;;;;;;23.25;70.26;99041.10;105886;1269;96710;-89
2023/09/11 10:49:15;;;;;;;;;;;;;;;23.29;70.12;99039.95;105957;1270;96655;-90
2023/09/11 10:51:48;;;;;;;;;;;;;;;23.34;70.44;99037.35;105825;1264;108441;-90
2023/09/11 10:54:20;;;;;;;;;;;;;;;23.41;70.12;99036.65;105998;1271;96625;-91
2023/09/11 10:56:49;;;;;;;;;;;;;;;23.45;70.20;99035.11;105943;1265;107174;-90
2023/09/11 10:59:25;;;;;;;;;;;;;;;23.48;69.92;99035.41;105983;1270;97938;-91
2023/09/11 11:02:09;;;;;;;;;;;;;;;23.50;69.90;99031.75;105903;1265;96517;-90
2023/09/11 11:05:33;;;;;;;;;;;;;;;23.52;69.70;99032.35;105898;1268;109906;-92
2023/09/11 11:08:01;;;;;;;;;;;;;;;23.56;69.39;99029.92;105864;1270;96534;-90
2023/09/11 11:10:29;;;;;;;;;;;;;;;23.65;69.59;99029.07;105986;1264;109511;-90
2023/09/11 11:13:11;;;;;;;;;;;;;;;23.71;69.66;99028.28;105847;1271;98022;-91
2023/09/11 11:15:39;;;;;;;;;;;;;;;23.74;69.45;99025.71;106375;1264;96620;-91
2023/09/11 11:18:24;;;;;;;;;;;;;;;23.74;69.19;99026.63;106077;1263;110204;-92
2023/09/11 11:20:59;;;;;;;;;;;;;;;23.81;69.20;99026.17;105999;1265;96608;-91
2023/09/11 11:23:35;;;;;;;;;;;;;;;23.85;69.34;99022.94;106065;1265;107635;-91
2023/09/11 11:26:09;;;;;;;;;;;;;;;23.83;69.21;99019.38;106021;1267;96599;-91
2023/09/11 11:28:46;;;;;;;;;;;;;;;23.81;68.69;99019.15;106022;1264;97453;-90
2023/09/11 11:31:18;;;;;;;;;;;;;;;23.80;68.88;99015.64;105828;1270;109345;-89
2023/09/11 11:34:13;;;;;;;;;;;;;;;23.76;68.85;99014.44;106129;1265;96611;-90
2023/09/11 11:36:41;;;;;;;;;;;;;;;23.78;68.90;99011.48;106025;1265;107667;-91
2023/09/11 11:39:38;;;;;;;;;;;;;;;23.85;68.75;99007.89;105959;1264;96596;-90
2023/09/11 11:42:08;;;;;;;;;;;;;;;23.98;68.02;99002.69;106242;1264;96502;-91
2023/09/11 11:44:37;;;;;;;;;;;;;;;24.01;68.25;99001.39;105952;1266;109969;-91
2023/09/11 11:47:06;;;;;;;;;;;;;;;23.99;68.27;98999.44;106169;1265;96556;-90
2023/09/11 11:49:55;;;;;;;;;;;;;;;23.97;68.36;98995.94;105985;1264;107606;-91
2023/09/11 11:52:23;;;;;;;;;;;;;;;23.96;68.51;98996.30;105849;1269;96630;-91
2023/09/11 11:54:51;;;;;;;;;;;;;;;24.01;68.53;98997.02;105928;1267;96587;-91
2023/09/11 11:57:20;;;;;;;;;;;;;;;24.06;68.54;98995.75;105841;1264;110134;-90
2023/09/11 11:59:48;;;;;;;;;;;;;;;24.12;68.33;98998.98;106125;1266;96555;-91
2023/09/11 12:02:23;;;;;;;;;;;;;;;24.14;68.25;98994.50;106157;1268;107711;-91
2023/09/11 12:04:55;;;;;;;;;;;;;;;24.15;67.80;98994.38;105948;1267;96576;-91
2023/09/11 12:07:27;;;;;;;;;;;;;;;24.15;67.82;98991.33;106233;1265;96575;-91
2023/09/11 12:09:56;;;;;;;;;;;;;;;24.14;67.90;98989.18;106657;1267;110062;-91
2023/09/11 12:12:25;;;;;;;;;;;;;;;24.18;67.99;98989.75;106488;1268;96320;-91
2023/09/11 12:14:55;;;;;;;;;;;;;;;24.22;68.05;98983.00;106248;1268;106178;-90
2023/09/11 12:17:24;;;;;;;;;;;;;;;24.27;68.03;98983.85;106184;1269;96576;-91
2023/09/11 12:20:15;;;;;;;;;;;;;;;24.33;67.82;98984.54;106091;1266;96521;-91
2023/09/11 12:22:45;;;;;;;;;;;;;;;24.35;67.57;98984.18;106101;1264;109902;-90
2023/09/11 12:25:15;;;;;;;;;;;;;;;24.32;67.37;98980.02;106303;1264;96511;-90
2023/09/11 12:27:44;;;;;;;;;;;;;;;24.34;67.59;98980.65;106210;1267;105839;-92
2023/09/11 12:30:14;;;;;;;;;;;;;;;24.38;67.51;98978.20;106114;1265;96524;-92
2023/09/11 12:32:44;;;;;;;;;;;;;;;24.42;67.36;98977.21;106207;1265;96516;-91
2023/09/11 12:35:13;;;;;;;;;;;;;;;24.41;67.11;98971.31;106239;1264;111511;-91
2023/09/11 12:37:42;;;;;;;;;;;;;;;24.41;67.20;98966.80;106209;1265;96512;-92
2023/09/11 12:40:13;;;;;;;;;;;;;;;24.43;67.44;98968.81;106696;1264;106270;-90
2023/09/11 12:42:45;;;;;;;;;;;;;;;24.47;67.23;98969.73;106434;1264;95421;-90
2023/09/11 12:45:21;;;;;;;;;;;;;;;24.51;67.19;98965.27;106414;1264;95270;-92
2023/09/11 12:48:34;;;;;;;;;;;;;;;24.54;67.09;98969.21;106063;1268;109507;-92
2023/09/11 12:51:02;;;;;;;;;;;;;;;24.55;67.14;98963.11;106215;1264;96404;-92
2023/09/11 12:53:30;;;;;;;;;;;;;;;24.56;67.07;98965.33;106219;1263;107707;-91
2023/09/11 12:59:17;;;;;;;;;;;;;;;24.65;66.99;98961.00;106146;1264;96410;-92
2023/09/11 13:01:46;;;;;;;;;;;;;;;24.65;66.80;98959.05;106174;1267;108713;-91
2023/09/11 13:08:00;;;;;;;;;;;;;;;24.66;66.17;98958.69;106103;1267;109159;-92
2023/09/11 13:10:31;;;;;;;;;;;;;;;24.70;66.09;98951.51;106143;1267;97780;-92
2023/09/11 13:13:03;;;;;;;;;;;;;;;24.71;66.16;98954.27;106118;1268;96761;-92
2023/09/11 13:15:31;;;;;;;;;;;;;;;24.71;65.96;98953.96;105914;1272;109259;-91
2023/09/11 13:18:00;;;;;;;;;;;;;;;24.75;66.02;98949.04;106408;1264;96560;-91
2023/09/11 13:20:28;;;;;;;;;;;;;;;24.81;66.14;98950.93;105941;1265;109572;-90
2023/09/11 13:22:57;;;;;;;;;;;;;;;24.83;66.04;98950.30;106050;1264;97043;-90
2023/09/11 13:25:25;;;;;;;;;;;;;;;24.85;65.80;98947.64;105938;1265;96653;-91
2023/09/11 13:27:53;;;;;;;;;;;;;;;24.85;65.78;98944.49;106035;1265;109637;-90
2023/09/11 13:30:22;;;;;;;;;;;;;;;24.86;65.70;98948.56;105990;1270;97492;-91
2023/09/11 13:32:51;;;;;;;;;;;;;;;24.83;65.40;98946.33;106046;1267;107270;-91
2023/09/11 13:35:20;;;;;;;;;;;;;;;24.84;65.56;98945.74;106174;1265;97912;-92
2023/09/11 13:37:50;;;;;;;;;;;;;;;24.84;65.55;98947.38;106028;1267;97428;-91
2023/09/11 13:40:20;;;;;;;;;;;;;;;24.84;65.40;98945.71;106031;1265;109428;-92
2023/09/11 13:43:05;;;;;;;;;;;;;;;24.88;65.68;98946.66;105957;1264;96455;-90
2023/09/11 13:45:34;;;;;;;;;;;;;;;24.89;65.45;98943.02;105945;1269;107097;-92
2023/09/11 13:48:04;;;;;;;;;;;;;;;24.89;65.58;98945.48;106032;1267;96686;-92
2023/09/11 13:50:33;;;;;;;;;;;;;;;24.87;65.22;98941.35;106157;1265;96596;-91
2023/09/11 13:53:03;;;;;;;;;;;;;;;24.86;65.29;98937.45;106025;1265;110005;-92
2023/09/11 13:55:32;;;;;;;;;;;;;;;24.87;65.05;98933.85;106043;1267;96612;-92
2023/09/11 13:58:00;;;;;;;;;;;;;;;24.90;64.78;98932.17;106065;1265;107803;-91
2023/09/11 14:00:29;;;;;;;;;;;;;;;24.94;65.05;98933.91;106110;1267;96608;-91
2023/09/11 14:02:59;;;;;;;;;;;;;;;24.95;64.99;98927.36;106339;1265;96513;-92
2023/09/11 14:08:35;;;;;;;;;;;;;;;24.91;64.95;98922.72;106147;1269;96431;-89
2023/09/11 14:11:09;;;;;;;;;;;;;;;24.90;64.65;98920.38;106148;1269;107618;-91
2023/09/11 14:13:38;;;;;;;;;;;;;;;24.91;64.46;98923.27;106168;1269;97567;-91
2023/09/11 14:16:07;;;;;;;;;;;;;;;24.95;64.65;98917.91;106541;1266;95269;-91
2023/09/11 14:24:43;;;;;;;;;;;;;;;24.92;64.05;98921.35;106527;1264;107792;-93
2023/09/11 14:27:23;;;;;;;;;;;;;;;24.92;64.34;98920.77;106533;1264;96537;-92
2023/09/11 14:29:53;;;;;;;;;;;;;;;24.91;64.16;98917.33;106452;1269;96760;-91
2023/09/11 14:35:30;;;;;;;;;;;;;;;24.88;64.14;98912.10;106292;1264;96546;-92
2023/09/11 14:37:59;;;;;;;;;;;;;;;24.88;64.06;98912.43;106288;1264;107372;-93
2023/09/11 14:40:30;;;;;;;;;;;;;;;24.87;64.07;98914.77;106324;1264;96570;-93
2023/09/11 14:43:03;;;;;;;;;;;;;;;24.89;63.89;98914.10;106084;1271;96590;-92
2023/09/11 14:45:54;;;;;;;;;;;;;;;24.92;64.14;98915.10;106183;1264;109950;-91
2023/09/11 14:48:23;;;;;;;;;;;;;;;24.88;64.13;98909.80;106299;1264;96400;-92
2023/09/11 14:50:54;;;;;;;;;;;;;;;24.85;64.00;98909.52;106853;1264;106311;-91
2023/09/11 14:53:47;;;;;;;;;;;;;;;24.84;64.11;98908.20;106829;1262;97386;-92
2023/09/11 14:56:16;;;;;;;;;;;;;;;24.84;63.95;98906.66;106519;1268;96665;-92
2023/09/11 14:58:46;;;;;;;;;;;;;;;24.83;63.79;98906.83;106402;1268;109512;-91
2023/09/11 15:01:15;;;;;;;;;;;;;;;24.85;63.49;98904.20;106308;1269;95311;-91
2023/09/11 15:03:44;;;;;;;;;;;;;;;24.88;63.53;98903.85;106365;1264;106945;-92
2023/09/11 15:06:15;;;;;;;;;;;;;;;24.87;63.56;98899.84;106268;1265;96650;-91
2023/09/11 15:08:46;;;;;;;;;;;;;;;24.85;63.46;98901.10;106317;1269;96665;-91
2023/09/11 15:11:16;;;;;;;;;;;;;;;24.83;63.54;98902.10;106688;1264;109913;-91
2023/09/11 15:14:14;;;;;;;;;;;;;;;24.81;63.74;98907.00;106317;1265;96647;-91
2023/09/11 15:16:47;;;;;;;;;;;;;;;24.80;63.57;98906.11;106138;1266;108118;-91
2023/09/11 15:19:16;;;;;;;;;;;;;;;24.79;63.62;98908.97;106260;1265;95282;-91
2023/09/11 15:21:45;;;;;;;;;;;;;;;24.79;63.44;98906.99;106233;1267;96641;-91
2023/09/11 15:24:34;;;;;;;;;;;;;;;24.78;63.59;98903.52;106276;1264;108632;-91
2023/09/11 15:33:19;;;;;;;;;;;;;;;24.58;63.58;98898.53;106198;1269;96605;-93
2023/09/11 15:36:06;;;;;;;;;;;;;;;24.56;63.52;98898.28;106148;1270;96617;-92
2023/09/11 15:38:53;;;;;;;;;;;;;;;;;;;;;
2023/09/11 15:42:03;;;;;;;;;;;;;;;24.49;63.59;98898.55;106327;1269;97419;-91
2023/09/11 15:47:59;;;;;;;;;;;;;;;24.45;63.56;98896.27;107050;1272;96631;-93
2023/09/11 15:50:28;;;;;;;;;;;;;;;24.40;63.63;98896.08;105794;1270;96468;-93
2023/09/11 15:52:57;;;;;;;;;;;;;;;24.34;63.70;98901.88;105738;1270;110342;-93
2023/09/11 15:55:40;;;;;;;;;;;;;;;24.27;63.76;98900.27;105831;1271;96554;-92
2023/09/11 15:58:09;;;;;;;;;;;;;;;24.21;63.68;98904.19;105916;1267;107716;-92
2023/09/11 16:01:00;;;;;;;;;;;;;;;24.15;63.78;98900.81;105927;1270;96512;-92
2023/09/11 16:03:31;;;;;;;;;;;;;;;24.05;63.85;98899.54;105911;1273;96573;-91
2023/09/11 16:05:59;;;;;;;;;;;;;;;23.99;63.91;98897.63;105937;1270;110024;-93
2023/09/11 16:08:51;;;;;;;;;;;;;;;23.90;64.10;98893.83;105826;1273;97537;-94
2023/09/11 16:11:21;;;;;;;;;;;;;;;23.84;64.13;98890.73;105936;1270;107775;-92
2023/09/11 16:13:50;;;;;;;;;;;;;;;23.76;64.14;98885.36;106124;1273;96565;-92
2023/09/11 16:16:22;;;;;;;;;;;;;;;23.68;64.23;98892.63;105847;1273;96615;-92
2023/09/11 16:18:51;;;;;;;;;;;;;;;23.58;64.15;98894.04;105891;1273;109951;-92
2023/09/11 16:21:21;;;;;;;;;;;;;;;23.49;64.25;98895.41;105917;1273;96557;-91
2023/09/11 16:24:33;;;;;;;;;;;;;;;23.38;64.23;98893.46;105775;1271;108396;-92
2023/09/11 16:27:10;;;;;;;;;;;;;;;23.27;64.38;98895.86;106171;1267;96492;-91
2023/09/11 16:29:55;;;;;;;;;;;;;;;23.16;64.41;98890.04;106797;1272;95439;-91
2023/09/11 16:32:24;;;;;;;;;;;;;;;23.06;64.46;98892.05;106421;1270;109908;-91
2023/09/11 16:34:54;;;;;;;;;;;;;;;22.98;64.51;98896.67;106196;1273;96616;-91
2023/09/11 16:37:24;;;;;;;;;;;;;;;22.90;64.55;98892.56;105863;1270;107661;-91
2023/09/11 16:39:52;;;;;;;;;;;;;;;22.84;64.63;98895.89;105928;1270;96606;-90
2023/09/11 16:42:21;;;;;;;;;;;;;;;22.76;64.60;98895.82;106129;1270;95390;-91
2023/09/11 16:44:54;;;;;;;;;;;;;;;22.67;64.90;98896.33;105920;1280;111384;-91
2023/09/11 16:47:23;;;;;;;;;;;;;;;22.60;64.87;98898.77;105726;1273;96552;-91
2023/09/11 16:49:52;;;;;;;;;;;;;;;22.51;64.78;98894.63;105661;1270;109166;-90
2023/09/11 16:55:20;;;;;;;;;;;;;;;22.32;64.82;98896.61;106231;1268;96988;-91
2023/09/11 16:57:50;;;;;;;;;;;;;;;22.23;64.94;98901.30;106292;1270;109962;-92
2023/09/11 17:00:22;;;;;;;;;;;;;;;22.14;65.06;98899.85;106748;1267;96675;-93
2023/09/11 17:02:52;;;;;;;;;;;;;;;22.06;65.08;98898.63;106879;1267;106308;-92
2023/09/11 17:05:25;;;;;;;;;;;;;;;21.99;65.26;98896.89;106350;1269;96548;-90
2023/09/11 17:07:58;;;;;;;;;;;;;;;21.90;65.36;98892.89;106215;1266;96632;-90
2023/09/11 17:48:00;;;;;;;;;;;;;;;20.98;65.91;98921.09;108424;1258;107318;31
2023/09/11 18:13:01;;;;;;;;;;;;;;;20.56;66.61;98928.27;106505;1263;110486;-92
2023/09/11 20:18:50;;;;;;;;;;;;;;;19.05;68.44;98919.71;108520;1260;109483;31
2023/09/11 21:36:37;;;;;;;;;;;;;;;;;;;;;
